SAS666 ENTC-ENAT

Flight info

Callsign SAS666
Flight time 0h 20m
Altitude 13000
Route ERPUG DCT UDSAM
Aircraft A321/M-SDE3FGHIRWY/LB1

Departure

Time 2026-05-04 18:51
Airport Tromsø Airport (ENTC)

Arrival

Time 2026-05-04 19:11
Airport Alta Airport (ENAT)
Time Latitude Longitude Altitude Speed Heading
2026-05-04 18:40 69.68124 18.90978 34 ft 0 kts 283°
2026-05-04 18:44 69.68124 18.90984 34 ft 2 kts 283°
2026-05-04 18:44 69.68116 18.91081 32 ft 4 kts 283°
2026-05-04 18:44 69.68110 18.91156 32 ft 4 kts 283°
2026-05-04 18:45 69.68105 18.91222 34 ft 3 kts 282°
2026-05-04 18:45 69.68105 18.91292 34 ft 4 kts 242°
2026-05-04 18:45 69.68122 18.91347 33 ft 4 kts 209°
2026-05-04 18:45 69.68146 18.91376 34 ft 3 kts 193°
2026-05-04 18:46 69.68149 18.91378 33 ft 1 kts 193°
2026-05-04 18:47 69.68132 18.91367 34 ft 7 kts 193°
2026-05-04 18:47 69.68056 18.91316 35 ft 14 kts 193°
2026-05-04 18:48 69.67960 18.91253 35 ft 15 kts 193°
2026-05-04 18:48 69.67855 18.91183 35 ft 16 kts 193°
2026-05-04 18:48 69.67743 18.91108 35 ft 17 kts 193°
2026-05-04 18:48 69.67643 18.91120 35 ft 5 kts 128°
2026-05-04 18:49 69.67630 18.91178 35 ft 2 kts 118°
2026-05-04 18:49 69.67624 18.91219 37 ft 2 kts 110°
2026-05-04 18:49 69.67616 18.91277 38 ft 6 kts 115°
2026-05-04 18:49 69.67616 18.91387 40 ft 5 kts 52°
2026-05-04 18:50 69.67655 18.91437 40 ft 8 kts 14°
2026-05-04 18:50 69.67861 18.91577 40 ft 66 kts 13°
2026-05-04 18:50 69.68543 18.92033 28 ft 133 kts 13°
2026-05-04 18:50 69.69584 18.92723 317 ft 159 kts 15°
2026-05-04 18:51 69.70670 18.93428 1076 ft 160 kts 13°
2026-05-04 18:51 69.71772 18.94064 1866 ft 163 kts 14°
2026-05-04 18:51 69.72876 18.95022 2468 ft 176 kts 22°
2026-05-04 18:51 69.73866 18.97268 2847 ft 196 kts 62°
2026-05-04 18:52 69.74341 19.01168 3264 ft 214 kts 71°
2026-05-04 18:52 69.74879 19.05234 3946 ft 219 kts 66°
2026-05-04 18:52 69.75593 19.09165 4587 ft 228 kts 61°
2026-05-04 18:52 69.76434 19.13333 4872 ft 252 kts 60°
2026-05-04 18:53 69.77352 19.17775 5514 ft 261 kts 60°
2026-05-04 18:53 69.78290 19.22324 6272 ft 265 kts 60°
2026-05-04 18:53 69.79234 19.26958 7026 ft 269 kts 62°
2026-05-04 18:53 69.79933 19.31977 7763 ft 272 kts 78°
2026-05-04 18:54 69.80123 19.37432 8506 ft 275 kts 92°
2026-05-04 18:54 69.80061 19.42929 9263 ft 278 kts 92°
2026-05-04 18:54 69.80308 19.48539 9838 ft 289 kts 77°
2026-05-04 18:54 69.80836 19.54399 10009 ft 312 kts 75°
2026-05-04 18:55 69.81432 19.60669 10248 ft 330 kts 75°
2026-05-04 18:55 69.82693 19.73684 11299 ft 339 kts 75°
2026-05-04 18:55 69.83325 19.80312 11835 ft 342 kts 76°
2026-05-04 18:56 69.83955 19.87007 12378 ft 346 kts 76°
2026-05-04 18:56 69.84581 19.93738 12541 ft 354 kts 76°
2026-05-04 18:56 69.85221 20.00661 12539 ft 355 kts 76°
2026-05-04 18:56 69.85860 20.07601 12540 ft 355 kts 76°
2026-05-04 18:57 69.86492 20.14528 12539 ft 355 kts 76°
2026-05-04 18:57 69.87123 20.21459 12546 ft 355 kts 76°
2026-05-04 18:57 69.87753 20.28404 12545 ft 355 kts 76°
2026-05-04 18:57 69.88381 20.35353 12546 ft 355 kts 76°
2026-05-04 18:58 69.89006 20.42306 12548 ft 355 kts 77°
2026-05-04 18:58 69.89628 20.49265 12556 ft 355 kts 76°
2026-05-04 18:58 69.90241 20.56145 12346 ft 345 kts 77°
2026-05-04 18:58 69.90823 20.62726 12333 ft 326 kts 77°
2026-05-04 18:59 69.91376 20.69006 12487 ft 325 kts 77°
2026-05-04 18:59 69.91944 20.75544 12562 ft 349 kts 77°
2026-05-04 18:59 69.92545 20.82492 12558 ft 358 kts 77°
2026-05-04 18:59 69.93155 20.89549 12563 ft 359 kts 77°
2026-05-04 19:00 69.93768 20.96633 12559 ft 360 kts 77°
2026-05-04 19:00 69.94378 21.03712 12564 ft 360 kts 77°
2026-05-04 19:00 69.94983 21.10791 12559 ft 360 kts 77°
2026-05-04 19:00 69.95585 21.17868 12562 ft 360 kts 77°
2026-05-04 19:01 69.96184 21.24953 12557 ft 360 kts 77°
2026-05-04 19:01 69.96773 21.31934 12555 ft 360 kts 77°
2026-05-04 19:01 69.97367 21.39015 12556 ft 360 kts 77°
2026-05-04 19:01 69.97958 21.46122 12282 ft 359 kts 77°
2026-05-04 19:02 69.98543 21.53209 12002 ft 360 kts 78°
2026-05-04 19:02 69.99127 21.60329 11733 ft 359 kts 78°
2026-05-04 19:02 69.99704 21.67393 11454 ft 358 kts 78°
2026-05-04 19:02 70.00275 21.74449 11039 ft 355 kts 78°
2026-05-04 19:03 70.00837 21.81458 10608 ft 353 kts 78°
2026-05-04 19:03 70.01395 21.88413 10240 ft 350 kts 78°
2026-05-04 19:03 70.02066 21.95284 9981 ft 350 kts 71°
2026-05-04 19:03 70.02894 22.01963 9848 ft 350 kts 71°
2026-05-04 19:04 70.03722 22.08671 9720 ft 349 kts 71°
2026-05-04 19:04 70.04534 22.15284 9291 ft 348 kts 72°
2026-05-04 19:04 70.05342 22.21918 8721 ft 344 kts 72°
2026-05-04 19:04 70.06140 22.28483 8181 ft 341 kts 72°
2026-05-04 19:05 70.06931 22.34995 7647 ft 338 kts 72°
2026-05-04 19:05 70.07716 22.41470 7113 ft 335 kts 72°
2026-05-04 19:05 70.08465 22.47681 6916 ft 308 kts 72°
2026-05-04 19:05 70.09147 22.53373 6702 ft 286 kts 73°
2026-05-04 19:06 70.09787 22.58757 6335 ft 269 kts 73°
2026-05-04 19:06 70.10386 22.63818 5980 ft 260 kts 74°
2026-05-04 19:06 70.10691 22.68912 5744 ft 250 kts 93°
2026-05-04 19:06 70.10424 22.73822 5388 ft 254 kts 111°
2026-05-04 19:07 70.09586 22.78443 5052 ft 254 kts 122°
2026-05-04 19:07 70.08717 22.82790 5012 ft 239 kts 122°
2026-05-04 19:07 70.07882 22.86959 4761 ft 234 kts 122°
2026-05-04 19:07 70.07047 22.91086 4394 ft 235 kts 121°
2026-05-04 19:08 70.06206 22.95227 4004 ft 238 kts 121°
2026-05-04 19:08 70.05373 22.99324 3597 ft 233 kts 121°
2026-05-04 19:08 70.04570 23.03269 3179 ft 216 kts 120°
2026-05-04 19:08 70.03820 23.06942 2773 ft 201 kts 120°
2026-05-04 19:09 70.03138 23.10277 2380 ft 182 kts 120°
2026-05-04 19:09 70.02512 23.13335 2057 ft 167 kts 120°
2026-05-04 19:09 70.01941 23.16122 1800 ft 153 kts 120°
2026-05-04 19:09 70.01409 23.18717 1584 ft 146 kts 120°
2026-05-04 19:10 70.00901 23.21190 1377 ft 143 kts 120°
2026-05-04 19:10 70.00390 23.23664 1149 ft 142 kts 120°
2026-05-04 19:10 69.99883 23.26125 891 ft 140 kts 118°
2026-05-04 19:10 69.99388 23.28591 614 ft 141 kts 118°
2026-05-04 19:11 69.98884 23.31049 385 ft 140 kts 118°
2026-05-04 19:11 69.98377 23.33484 138 ft 141 kts 118°
2026-05-04 19:11 69.97887 23.35822 35 ft 125 kts 123°
2026-05-04 19:11 69.97580 23.37291 32 ft 22 kts 122°
2026-05-04 19:12 69.97543 23.37397 35 ft 4 kts 144°
2026-05-04 19:12 69.97540 23.37427 36 ft 0 kts 100°
2026-05-04 19:12 69.97555 23.37437 36 ft 5 kts 338°
2026-05-04 19:13 69.97609 23.37164 33 ft 21 kts 299°
2026-05-04 19:13 69.97683 23.36789 37 ft 21 kts 302°
2026-05-04 19:13 69.97763 23.36420 35 ft 23 kts 301°
2026-05-04 19:13 69.97847 23.36002 33 ft 25 kts 301°
2026-05-04 19:14 69.97912 23.35685 35 ft 19 kts 300°
2026-05-04 19:14 69.97942 23.35429 36 ft 13 kts 239°
2026-05-04 19:14 69.97881 23.35212 35 ft 15 kts 243°
2026-05-04 19:14 69.97885 23.34931 35 ft 8 kts 297°
2026-05-04 19:15 69.97914 23.34777 35 ft 10 kts 299°
2026-05-04 19:15 69.97919 23.34603 35 ft 9 kts 227°
2026-05-04 19:15 69.97885 23.34546 35 ft 0 kts 209°
2026-05-04 19:15 69.97883 23.34543 35 ft 0 kts 210°